createdAt,value
2022-08-13T00:00:45.366Z,18.13
2022-08-13T00:04:01.068Z,18.06
2022-08-13T00:06:12.937Z,18.04
2022-08-13T00:08:49.772Z,18.01
2022-08-13T00:12:01.161Z,18.01
2022-08-13T00:14:35.688Z,18.03
2022-08-13T00:17:08.210Z,18.05
2022-08-13T00:19:40.202Z,18.07
2022-08-13T00:22:28.149Z,18.00
2022-08-13T00:24:57.627Z,17.86
2022-08-13T00:27:26.635Z,17.76
2022-08-13T00:29:57.942Z,17.70
2022-08-13T00:32:34.102Z,17.64
2022-08-13T00:35:09.117Z,17.57
2022-08-13T00:37:49.281Z,17.48
2022-08-13T00:40:31.668Z,17.34
2022-08-13T00:43:06.472Z,17.27
2022-08-13T00:45:35.101Z,17.21
2022-08-13T00:48:23.550Z,17.17
2022-08-13T00:50:53.724Z,17.13
2022-08-13T00:53:25.191Z,17.08
2022-08-13T00:56:00.370Z,17.06
2022-08-13T00:58:28.781Z,17.03
2022-08-13T01:00:59.208Z,16.98
2022-08-13T01:04:10.021Z,16.89
2022-08-13T01:06:19.901Z,16.83
2022-08-13T01:08:54.773Z,16.83
2022-08-13T01:11:30.567Z,16.84
2022-08-13T01:13:59.447Z,16.86
2022-08-13T01:16:29.533Z,16.90
2022-08-13T01:18:56.478Z,16.92
2022-08-13T01:21:40.098Z,16.94
2022-08-13T01:24:14.432Z,16.93
2022-08-13T01:26:46.576Z,16.93
2022-08-13T01:29:17.641Z,16.97
2022-08-13T01:31:45.570Z,17.03
2022-08-13T01:34:24.373Z,17.06
2022-08-13T01:36:56.427Z,17.02
2022-08-13T01:39:26.077Z,17.08
2022-08-13T01:41:56.966Z,17.12
2022-08-13T01:44:34.369Z,17.14
2022-08-13T01:47:24.892Z,17.11
2022-08-13T01:50:11.275Z,17.07
2022-08-13T01:52:42.678Z,17.05
2022-08-13T01:55:10.687Z,17.10
2022-08-13T01:57:52.934Z,17.10
2022-08-13T02:00:27.729Z,17.09
2022-08-13T02:02:56.286Z,17.04
2022-08-13T02:06:21.632Z,16.99
2022-08-13T02:08:19.542Z,16.95
2022-08-13T02:10:48.429Z,16.91
2022-08-13T02:13:25.703Z,16.89
2022-08-13T02:15:53.774Z,16.88
2022-08-13T02:18:23.612Z,16.86
2022-08-13T02:20:57.337Z,16.88
2022-08-13T02:23:30.009Z,16.87
2022-08-13T02:26:18.987Z,16.84
2022-08-13T02:28:49.712Z,16.82
2022-08-13T02:31:25.605Z,16.80
2022-08-13T02:34:04.210Z,16.80
2022-08-13T02:36:37.359Z,16.79
2022-08-13T02:39:06.947Z,16.83
2022-08-13T02:41:47.506Z,16.83
2022-08-13T02:44:23.728Z,16.82
2022-08-13T02:47:03.023Z,16.83
2022-08-13T02:49:30.592Z,16.88
2022-08-13T02:52:12.549Z,16.94
2022-08-13T02:54:45.595Z,16.99
2022-08-13T02:57:23.457Z,17.09
2022-08-13T03:00:05.529Z,17.11
2022-08-13T03:02:46.033Z,17.12
2022-08-13T03:05:20.586Z,17.13
2022-08-13T03:07:54.094Z,17.14
2022-08-13T03:10:32.157Z,17.18
2022-08-13T03:13:21.663Z,17.18
2022-08-13T03:15:55.226Z,17.17
2022-08-13T03:18:51.253Z,17.10
2022-08-13T03:21:42.802Z,17.06
2022-08-13T03:24:09.093Z,17.10
2022-08-13T03:26:36.464Z,17.13
2022-08-13T03:29:04.399Z,17.11
2022-08-13T03:31:52.584Z,17.13
2022-08-13T03:34:22.954Z,17.20
2022-08-13T03:36:50.508Z,17.24
2022-08-13T03:39:18.285Z,17.26
2022-08-13T03:41:51.067Z,17.25
2022-08-13T03:44:20.561Z,17.20
2022-08-13T03:46:58.770Z,17.18
2022-08-13T03:49:29.127Z,17.19
2022-08-13T03:51:56.571Z,17.22
2022-08-13T03:54:26.910Z,17.27
2022-08-13T03:56:56.034Z,17.29
2022-08-13T03:59:28.797Z,17.28
2022-08-13T04:02:03.779Z,17.35
2022-08-13T04:04:36.197Z,17.42
2022-08-13T04:07:03.189Z,17.46
2022-08-13T04:09:29.981Z,17.50
2022-08-13T04:12:05.497Z,17.51
2022-08-13T04:14:36.627Z,17.49
2022-08-13T04:17:11.845Z,17.45
2022-08-13T04:19:42.033Z,17.42
2022-08-13T04:22:11.428Z,17.37
2022-08-13T04:24:38.166Z,17.32
2022-08-13T04:27:07.613Z,17.35
2022-08-13T04:29:36.730Z,17.38
2022-08-13T04:32:26.028Z,17.45
2022-08-13T04:34:59.338Z,17.53
2022-08-13T04:37:35.194Z,17.62
2022-08-13T04:42:58.541Z,17.73
2022-08-13T04:48:01.758Z,17.64
2022-08-13T04:50:35.160Z,17.59
2022-08-13T04:53:08.915Z,17.54
2022-08-13T04:56:08.375Z,17.51
2022-08-13T04:58:30.963Z,17.50
2022-08-13T05:00:57.952Z,17.51
2022-08-13T05:03:33.482Z,17.51
2022-08-13T05:06:13.342Z,17.56
2022-08-13T05:08:42.555Z,17.56
2022-08-13T05:11:22.756Z,17.54
2022-08-13T05:13:56.300Z,17.53
2022-08-13T05:16:23.749Z,17.51
2022-08-13T05:18:57.716Z,17.56
2022-08-13T05:21:58.341Z,17.60
2022-08-13T05:26:08.335Z,17.62
2022-08-13T05:27:08.792Z,17.64
2022-08-13T05:29:51.542Z,17.68
2022-08-13T05:32:37.427Z,17.66
2022-08-13T05:35:14.617Z,17.62
2022-08-13T05:38:15.533Z,17.66
2022-08-13T05:40:35.732Z,17.69
2022-08-13T05:43:12.540Z,17.73
2022-08-13T05:45:52.888Z,17.83
2022-08-13T05:48:21.086Z,17.91
2022-08-13T05:50:55.586Z,17.97
2022-08-13T05:53:24.215Z,18.05
2022-08-13T05:56:11.605Z,18.08
2022-08-13T05:58:41.422Z,18.07
2022-08-13T06:01:27.868Z,18.09
2022-08-13T06:04:31.072Z,18.11
2022-08-13T06:06:46.858Z,18.13
2022-08-13T06:09:14.621Z,18.18
2022-08-13T06:12:25.351Z,18.22
2022-08-13T06:14:39.285Z,18.29
2022-08-13T06:17:12.348Z,18.38
2022-08-13T06:19:44.870Z,18.45
2022-08-13T06:22:13.418Z,18.50
2022-08-13T06:24:52.139Z,18.57
2022-08-13T06:27:56.888Z,18.63
2022-08-13T06:30:27.255Z,18.66
2022-08-13T06:34:07.310Z,18.68
2022-08-13T06:35:56.237Z,18.70
2022-08-13T06:38:33.881Z,18.73
2022-08-13T06:41:06.032Z,18.72
2022-08-13T06:43:47.321Z,18.71
2022-08-13T06:46:26.766Z,18.76
2022-08-13T06:48:54.880Z,18.76
2022-08-13T06:51:21.956Z,18.77
2022-08-13T06:54:22.008Z,18.84
2022-08-13T06:56:37.830Z,18.90
2022-08-13T06:59:13.133Z,18.92
2022-08-13T07:02:08.074Z,18.92
2022-08-13T07:04:31.121Z,18.95
2022-08-13T07:06:59.056Z,18.98
2022-08-13T07:09:26.082Z,18.98
2022-08-13T07:12:10.171Z,19.00
2022-08-13T07:14:36.944Z,19.04
2022-08-13T07:17:03.876Z,19.09
2022-08-13T07:19:56.893Z,19.12
2022-08-13T07:24:36.401Z,19.15
2022-08-13T07:25:11.367Z,19.14
2022-08-13T07:27:42.841Z,19.19
2022-08-13T07:30:16.161Z,19.24
2022-08-13T07:32:45.120Z,19.29
2022-08-13T07:35:16.807Z,19.32
2022-08-13T07:37:52.432Z,19.29
2022-08-13T07:40:21.430Z,19.24
2022-08-13T07:42:52.148Z,19.27
2022-08-13T07:46:23.144Z,19.31
2022-08-13T07:48:30.944Z,19.32
2022-08-13T07:51:05.736Z,19.34
2022-08-13T07:53:54.117Z,19.39
2022-08-13T07:56:33.097Z,19.46
2022-08-13T07:59:13.681Z,19.52
2022-08-13T08:02:22.568Z,19.60
2022-08-13T08:04:42.962Z,19.65
2022-08-13T08:07:16.023Z,19.65
2022-08-13T08:09:44.292Z,19.69
2022-08-13T08:12:29.755Z,19.68
2022-08-13T08:14:57.317Z,19.67
2022-08-13T08:18:15.957Z,19.65
2022-08-13T08:20:37.369Z,19.74
2022-08-13T08:23:11.126Z,19.81
2022-08-13T08:25:42.051Z,19.90
2022-08-13T08:28:34.525Z,20.01
2022-08-13T08:31:20.919Z,20.08
2022-08-13T08:33:58.107Z,20.20
2022-08-13T08:36:35.821Z,20.36
2022-08-13T08:39:38.543Z,20.53
2022-08-13T08:42:36.387Z,20.68
2022-08-13T08:45:13.126Z,20.79
2022-08-13T08:47:48.850Z,20.90
2022-08-13T08:50:27.384Z,21.02
2022-08-13T08:53:34.308Z,21.13
2022-08-13T08:56:07.518Z,21.23
2022-08-13T08:58:38.975Z,21.28
2022-08-13T09:01:09.283Z,21.29
2022-08-13T09:03:49.944Z,21.36
2022-08-13T09:06:54.118Z,21.39
2022-08-13T09:09:18.709Z,21.41
2022-08-13T09:11:55.905Z,21.44
2022-08-13T09:14:28.573Z,21.41
2022-08-13T09:17:01.220Z,21.35
2022-08-13T09:19:47.485Z,21.27
2022-08-13T09:22:24.035Z,21.16
2022-08-13T09:25:00.851Z,21.05
2022-08-13T09:28:11.714Z,21.04
2022-08-13T09:30:24.095Z,21.04
2022-08-13T09:32:54.525Z,21.05
2022-08-13T09:35:24.626Z,21.03
2022-08-13T09:37:58.287Z,21.05
2022-08-13T09:40:39.615Z,21.05
2022-08-13T09:43:43.858Z,21.09
2022-08-13T09:46:20.008Z,21.19
2022-08-13T09:48:53.992Z,21.36
2022-08-13T09:51:55.158Z,21.60
2022-08-13T09:54:11.862Z,21.89
2022-08-13T09:56:39.868Z,22.30
2022-08-13T09:59:15.122Z,22.68
2022-08-13T10:01:57.905Z,23.09
2022-08-13T10:04:34.009Z,23.67
2022-08-13T10:07:04.252Z,24.30
2022-08-13T10:09:55.644Z,25.36
2022-08-13T10:12:25.297Z,26.44
2022-08-13T10:14:56.403Z,27.33
2022-08-13T10:17:24.626Z,28.16
2022-08-13T10:20:10.111Z,29.43
2022-08-13T10:22:36.849Z,30.25
2022-08-13T10:25:04.899Z,30.41
2022-08-13T10:27:48.497Z,30.37
2022-08-13T10:30:57.225Z,30.49
2022-08-13T10:33:06.100Z,30.30
2022-08-13T10:35:33.477Z,30.27
2022-08-13T10:38:06.035Z,30.22
2022-08-13T10:40:35.801Z,30.03
2022-08-13T10:43:07.109Z,29.83
2022-08-13T10:45:47.586Z,29.75
2022-08-13T10:48:14.952Z,29.58
2022-08-13T10:50:42.801Z,29.21
2022-08-13T10:53:42.438Z,28.85
2022-08-13T10:56:13.297Z,28.34
2022-08-13T10:58:50.569Z,27.99
2022-08-13T11:01:25.055Z,27.59
2022-08-13T11:04:04.691Z,27.16
2022-08-13T11:06:39.106Z,26.77
2022-08-13T11:09:23.791Z,26.49
2022-08-13T11:11:55.320Z,26.23
2022-08-13T11:14:34.998Z,26.02
2022-08-13T11:17:09.704Z,25.80
2022-08-13T11:19:49.056Z,25.70
2022-08-13T11:22:27.042Z,25.83
2022-08-13T11:24:55.837Z,26.04
2022-08-13T11:27:30.696Z,26.21
2022-08-13T11:30:13.349Z,26.65
2022-08-13T11:32:47.015Z,26.98
2022-08-13T11:35:13.783Z,27.30
2022-08-13T11:37:42.648Z,27.47
2022-08-13T11:40:31.066Z,27.51
2022-08-13T11:43:10.209Z,27.46
2022-08-13T11:45:46.681Z,27.31
2022-08-13T11:48:18.952Z,27.10
2022-08-13T11:50:51.058Z,26.84
2022-08-13T11:53:20.625Z,26.55
2022-08-13T11:55:57.019Z,26.31
2022-08-13T11:58:41.996Z,26.10
2022-08-13T12:01:18.074Z,25.86
2022-08-13T12:04:15.976Z,25.64
2022-08-13T12:06:37.682Z,25.45
2022-08-13T12:09:21.995Z,25.34
2022-08-13T12:12:04.677Z,25.26
2022-08-13T12:14:37.934Z,25.21
2022-08-13T12:17:04.735Z,25.21
2022-08-13T12:19:32.305Z,25.25
2022-08-13T12:22:00.854Z,25.27
2022-08-13T12:24:33.000Z,25.28
2022-08-13T12:27:05.297Z,25.25
2022-08-13T12:29:45.837Z,25.25
2022-08-13T12:32:18.521Z,25.28
2022-08-13T12:34:48.309Z,25.43
2022-08-13T12:37:23.208Z,25.64
2022-08-13T12:39:58.343Z,25.94
2022-08-13T12:42:27.953Z,26.15
2022-08-13T12:45:10.166Z,26.20
2022-08-13T12:47:49.718Z,26.22
2022-08-13T12:50:20.710Z,26.26
2022-08-13T12:52:50.092Z,26.30
2022-08-13T12:55:24.782Z,26.30
2022-08-13T12:58:11.777Z,26.29
2022-08-13T13:00:41.118Z,26.27
2022-08-13T13:03:12.809Z,26.30
2022-08-13T13:05:42.928Z,26.38
2022-08-13T13:08:35.598Z,26.51
2022-08-13T13:11:13.938Z,26.65
2022-08-13T13:13:58.327Z,26.81
2022-08-13T13:16:35.692Z,26.90
2022-08-13T13:19:05.301Z,26.95
2022-08-13T13:21:41.915Z,26.95
2022-08-13T13:24:17.124Z,26.81
2022-08-13T13:26:57.091Z,26.58
2022-08-13T13:29:31.067Z,26.32
2022-08-13T13:32:38.853Z,26.05
2022-08-13T13:34:54.344Z,25.75
2022-08-13T13:37:21.732Z,25.48
2022-08-13T13:39:48.917Z,25.22
2022-08-13T13:42:29.039Z,24.96
2022-08-13T13:44:58.077Z,24.65
2022-08-13T13:47:26.729Z,24.41
2022-08-13T13:49:54.124Z,24.19
2022-08-13T13:52:22.683Z,23.92
2022-08-13T13:54:53.234Z,23.58
2022-08-13T13:57:25.268Z,23.26
2022-08-13T13:59:55.276Z,22.91
2022-08-13T14:02:32.036Z,22.56
2022-08-13T14:05:18.297Z,22.21
2022-08-13T14:07:57.805Z,21.95
2022-08-13T14:10:26.175Z,21.76
2022-08-13T14:13:06.575Z,21.54
2022-08-13T14:15:40.511Z,21.41
2022-08-13T14:18:25.999Z,21.30
2022-08-13T14:20:57.530Z,21.17
2022-08-13T14:23:39.111Z,21.19
2022-08-13T14:26:10.440Z,21.27
2022-08-13T14:28:46.821Z,21.33
2022-08-13T14:31:15.972Z,21.31
2022-08-13T14:34:00.867Z,21.18
2022-08-13T14:36:31.776Z,21.16
2022-08-13T14:39:05.875Z,21.15
2022-08-13T14:41:42.704Z,21.20
2022-08-13T14:44:22.500Z,21.21
2022-08-13T14:46:57.133Z,21.14
2022-08-13T14:49:36.344Z,21.05
2022-08-13T14:52:13.429Z,20.93
2022-08-13T14:54:51.400Z,20.85
2022-08-13T14:57:33.334Z,20.73
2022-08-13T15:00:08.153Z,20.63
2022-08-13T15:02:50.626Z,20.51
2022-08-13T15:05:50.942Z,20.46
2022-08-13T15:08:29.843Z,20.44
2022-08-13T15:11:07.285Z,20.39
2022-08-13T15:13:53.793Z,20.35
2022-08-13T15:16:31.895Z,20.36
2022-08-13T15:19:16.222Z,20.29
2022-08-13T15:21:47.056Z,20.20
2022-08-13T15:24:41.001Z,20.11
2022-08-13T15:27:36.627Z,20.01
2022-08-13T15:30:19.690Z,19.97
2022-08-13T15:33:03.480Z,20.00
2022-08-13T15:35:37.522Z,19.94
2022-08-13T15:38:12.067Z,19.93
2022-08-13T15:40:49.871Z,19.97
2022-08-13T15:43:36.584Z,20.01
2022-08-13T15:46:09.232Z,20.07
2022-08-13T15:48:39.124Z,20.19
2022-08-13T15:51:07.206Z,20.32
2022-08-13T15:53:43.482Z,20.45
2022-08-13T15:56:10.120Z,20.57
2022-08-13T15:58:41.237Z,20.72
2022-08-13T16:01:20.532Z,20.77
2022-08-13T16:03:56.319Z,20.78
2022-08-13T16:06:30.028Z,20.77
2022-08-13T16:08:58.750Z,20.69
2022-08-13T16:11:43.597Z,20.67
2022-08-13T16:14:18.109Z,20.69
2022-08-13T16:16:52.719Z,20.69
2022-08-13T16:19:39.692Z,20.71
2022-08-13T16:22:10.145Z,20.72
2022-08-13T16:24:37.628Z,20.72
2022-08-13T16:27:06.603Z,20.71
2022-08-13T16:29:37.870Z,20.69
2022-08-13T16:32:16.467Z,20.64
2022-08-13T16:34:54.624Z,20.62
2022-08-13T16:37:21.673Z,20.55
2022-08-13T16:39:49.662Z,20.44
2022-08-13T16:42:16.974Z,20.35
2022-08-13T16:44:44.001Z,20.28
2022-08-13T16:47:15.132Z,20.22
2022-08-13T16:49:43.589Z,19.98
2022-08-13T16:52:18.064Z,19.72
2022-08-13T16:54:45.925Z,19.65
2022-08-13T16:57:12.910Z,19.63
2022-08-13T16:59:43.269Z,19.65
2022-08-13T17:02:10.119Z,19.65
2022-08-13T17:05:10.200Z,19.66
2022-08-13T17:07:57.316Z,19.67
2022-08-13T17:10:25.735Z,19.69
2022-08-13T17:12:53.281Z,19.71
2022-08-13T17:15:23.238Z,19.70
2022-08-13T17:17:53.906Z,19.65
2022-08-13T17:20:28.785Z,19.63
2022-08-13T17:22:57.193Z,19.64
2022-08-13T17:25:25.805Z,19.65
2022-08-13T17:27:57.308Z,19.65
2022-08-13T17:30:26.960Z,19.66
2022-08-13T17:32:54.094Z,19.67
2022-08-13T17:35:24.204Z,19.67
2022-08-13T17:37:59.077Z,19.67
2022-08-13T17:40:34.226Z,19.65
2022-08-13T17:43:59.328Z,19.62
2022-08-13T17:45:50.099Z,19.58
2022-08-13T17:48:16.914Z,19.57
2022-08-13T17:50:50.042Z,19.56
2022-08-13T17:53:19.099Z,19.53
2022-08-13T17:55:52.058Z,19.47
2022-08-13T17:58:33.082Z,19.43
2022-08-13T18:01:17.090Z,19.37
2022-08-13T18:03:52.587Z,19.29
2022-08-13T18:06:27.616Z,19.24
2022-08-13T18:09:22.033Z,19.24
2022-08-13T18:12:47.534Z,19.22
2022-08-13T18:15:13.455Z,19.20
2022-08-13T18:18:37.508Z,19.20
2022-08-13T18:20:36.089Z,19.19
2022-08-13T18:23:05.259Z,19.18
2022-08-13T18:25:36.103Z,19.15
2022-08-13T18:28:06.527Z,19.16
2022-08-13T18:30:51.950Z,19.17
2022-08-13T18:34:13.951Z,19.17
2022-08-13T18:36:19.455Z,19.16
2022-08-13T18:38:50.159Z,19.18
2022-08-13T18:41:23.323Z,19.17
2022-08-13T18:43:54.113Z,19.18
2022-08-13T18:46:22.363Z,19.17
2022-08-13T18:48:53.768Z,19.19
2022-08-13T18:51:32.348Z,19.19
2022-08-13T18:54:10.625Z,19.17
2022-08-13T18:56:56.244Z,19.17
2022-08-13T18:59:24.497Z,19.18
2022-08-13T19:01:52.540Z,19.19
2022-08-13T19:04:19.179Z,19.21
2022-08-13T19:06:57.611Z,19.25
2022-08-13T19:09:27.355Z,19.26
2022-08-13T19:11:54.068Z,19.28
2022-08-13T19:14:26.064Z,19.28
2022-08-13T19:16:57.576Z,19.29
2022-08-13T19:19:55.127Z,19.30
2022-08-13T19:22:19.531Z,19.31
2022-08-13T19:24:49.289Z,19.28
2022-08-13T19:27:20.257Z,19.27
2022-08-13T19:29:48.442Z,19.24
2022-08-13T19:32:19.639Z,19.19
2022-08-13T19:34:51.350Z,19.16
2022-08-13T19:37:21.708Z,19.13
2022-08-13T19:39:59.197Z,19.10
2022-08-13T19:42:42.519Z,19.08
2022-08-13T19:45:20.495Z,19.01
2022-08-13T19:47:58.753Z,19.01
2022-08-13T19:50:31.429Z,18.99
2022-08-13T19:52:59.798Z,19.00
2022-08-13T19:55:52.979Z,19.01
2022-08-13T19:58:18.801Z,19.00
2022-08-13T20:00:52.768Z,18.99
2022-08-13T20:03:28.261Z,18.97
2022-08-13T20:06:07.635Z,18.96
2022-08-13T20:08:36.992Z,18.96
2022-08-13T20:11:22.095Z,18.94
2022-08-13T20:13:55.399Z,18.92
2022-08-13T20:16:25.253Z,18.92
2022-08-13T20:18:54.819Z,18.88
2022-08-13T20:21:45.784Z,18.87
2022-08-13T20:24:21.652Z,18.83
2022-08-13T20:27:18.142Z,18.80
2022-08-13T20:29:57.477Z,18.76
2022-08-13T20:32:28.868Z,18.74
2022-08-13T20:35:08.229Z,18.73
2022-08-13T20:37:58.555Z,18.73
2022-08-13T20:40:31.439Z,18.70
2022-08-13T20:43:12.433Z,18.67
2022-08-13T20:45:53.113Z,18.68
2022-08-13T20:48:27.509Z,18.67
2022-08-13T20:50:58.863Z,18.69
2022-08-13T20:53:26.127Z,18.68
2022-08-13T20:55:52.964Z,18.67
2022-08-13T21:00:48.015Z,18.65
2022-08-13T21:01:17.627Z,18.61
2022-08-13T21:03:45.885Z,18.58
2022-08-13T21:06:18.038Z,18.56
2022-08-13T21:08:52.426Z,18.52
2022-08-13T21:11:23.801Z,18.48
2022-08-13T21:13:51.852Z,18.45
2022-08-13T21:16:34.286Z,18.42
2022-08-13T21:19:39.579Z,18.41
2022-08-13T21:21:56.778Z,18.40
2022-08-13T21:24:28.041Z,18.39
2022-08-13T21:26:58.882Z,18.35
2022-08-13T21:29:31.557Z,18.33
2022-08-13T21:32:07.498Z,18.27
2022-08-13T21:34:42.029Z,18.24
2022-08-13T21:37:12.094Z,18.20
2022-08-13T21:39:39.567Z,18.18
2022-08-13T21:42:06.587Z,18.19
2022-08-13T21:44:34.659Z,18.20
2022-08-13T21:47:14.861Z,18.20
2022-08-13T21:49:45.296Z,18.18
2022-08-13T21:52:15.155Z,18.19
2022-08-13T21:54:51.497Z,18.17
2022-08-13T21:57:23.206Z,18.16
2022-08-13T21:59:52.347Z,18.15
2022-08-13T22:02:33.409Z,18.13
2022-08-13T22:05:00.991Z,18.10
2022-08-13T22:07:57.014Z,18.07
2022-08-13T22:10:19.149Z,18.05
2022-08-13T22:12:55.554Z,18.05
2022-08-13T22:15:26.584Z,18.03
2022-08-13T22:18:02.058Z,17.98
2022-08-13T22:20:29.001Z,17.96
2022-08-13T22:22:58.169Z,17.97
2022-08-13T22:25:25.155Z,17.92
2022-08-13T22:27:52.576Z,17.89
2022-08-13T22:30:38.090Z,17.91
2022-08-13T22:33:10.606Z,17.93
2022-08-13T22:35:55.412Z,17.92
2022-08-13T22:38:25.784Z,17.89
2022-08-13T22:40:59.449Z,17.88
2022-08-13T22:43:44.118Z,17.90
2022-08-13T22:46:13.598Z,17.89
2022-08-13T22:48:40.759Z,17.89
2022-08-13T22:51:12.203Z,17.87
2022-08-13T22:53:41.933Z,17.88
2022-08-13T22:56:13.110Z,17.88
2022-08-13T22:58:42.638Z,17.90
2022-08-13T23:01:11.654Z,17.90
2022-08-13T23:03:39.111Z,17.91
2022-08-13T23:06:36.257Z,17.90
2022-08-13T23:08:58.994Z,17.93
2022-08-13T23:11:28.208Z,17.96
2022-08-13T23:13:57.118Z,18.00
2022-08-13T23:16:25.037Z,18.06
2022-08-13T23:18:55.452Z,18.08
2022-08-13T23:21:24.174Z,18.10
2022-08-13T23:23:56.622Z,18.12
2022-08-13T23:26:29.714Z,18.11
2022-08-13T23:29:02.138Z,18.09
2022-08-13T23:31:30.896Z,18.08
2022-08-13T23:34:04.723Z,18.06
2022-08-13T23:36:35.726Z,18.06
2022-08-13T23:39:04.851Z,18.04
2022-08-13T23:41:35.635Z,18.03
2022-08-13T23:44:09.858Z,17.98
2022-08-13T23:46:44.277Z,17.92
2022-08-13T23:49:13.275Z,17.91
2022-08-13T23:51:41.650Z,17.89
2022-08-13T23:54:14.552Z,17.87
2022-08-13T23:56:43.993Z,17.86
2022-08-13T23:59:18.267Z,17.85
